Mansfield, WA (98830)

11:10 PM PST on February 07, 2016 (GMT -0800)
The Highlands | | Change Station
CLOSE
Current Station
Personal Weather Station
Location: Chelan, WA
Elevation: 1610 ft
Nearby Weather Stations

Elev 1610 ft 47.86 °N, 120.04 °W | Updated 10 minutes ago

Partly Cloudy
Partly Cloudy
33.9 °F
Feels Like 34 °F
N
1.0
Wind Variable Wind from WNW
Gusts 2.0 mph

Today
High -- | Low -- °F
--% Chance of Precip.
Yesterday
High -- | Low -- °F
Precip. -- in
Pressure 30.67 in
Visibility 10.0 miles
Clouds Clear
Windchill 34 °F
Dew Point 29 °F
Humidity 81%
Rainfall 0.00 in
Snow Depth Not available.
7:17 AM 5:08 PM
Waning Crescent, 0% visible
METAR KEPH 080653Z AUTO 33005KT 10SM CLR 02/M02 A3064 RMK AO2 SLP386 T00171017
Pressure 30.67 in
Visibility 10.0 miles
Clouds Clear
Windchill 34 °F
Dew Point 29 °F
Humidity 81%
Rainfall 0.00 in
Snow Depth Not available.
7:17 AM 5:08 PM
Waning Crescent, 0% visible
METAR KEPH 080653Z AUTO 33005KT 10SM CLR 02/M02 A3064 RMK AO2 SLP386 T00171017

10-Day Weather Forecast

Almanac

Astronomy

Feb. 07, 2016 Rise Set
Actual Time
Civil Twilight
Nautical Twilight
Astronomical Twilight
Moon
Length of Visible Light
Length of Day
Tomorrow will be .
, % of the Moon is Illuminated

Today's Extremes

State Highs State Lows

Community

WunderPhotos

Upload Photos

1,891,394 photos uploaded!

WunderBlog® & News

Nearby

Air Quality

  Air Quality AQ Index Pollutant
Not available.

Snow Depth

Station Depth Elevation

Earthquake Activity

City Distance Mag. Time & Date
Minimum magnitude displayed is 2.5.

Coastal Water Temperatures

Place Temperature

Stations

Nearby Weather Stations

Station Location Temp. Windchill Dew Point Humidity Wind Precip. Elev Updated Type
                   

Watches & Warnings

There are currently no watches in effect.